createdAt,value
2019-04-10T00:00:57.528Z,16.83
2019-04-10T00:03:32.360Z,17.53
2019-04-10T00:05:56.211Z,16.47
2019-04-10T00:08:24.461Z,16.07
2019-04-10T00:10:52.466Z,16.87
2019-04-10T00:13:20.602Z,16.20
2019-04-10T00:15:48.811Z,15.27
2019-04-10T00:18:17.905Z,15.93
2019-04-10T00:20:46.893Z,16.87
2019-04-10T00:23:15.202Z,15.93
2019-04-10T00:25:43.465Z,14.67
2019-04-10T00:28:11.619Z,15.77
2019-04-10T00:30:39.720Z,15.43
2019-04-10T00:33:08.233Z,14.43
2019-04-10T00:35:37.166Z,15.47
2019-04-10T00:38:05.176Z,15.90
2019-04-10T00:40:33.239Z,16.93
2019-04-10T00:43:01.004Z,23.40
2019-04-10T00:45:29.313Z,24.20
2019-04-10T00:47:57.469Z,20.93
2019-04-10T00:50:26.556Z,20.33
2019-04-10T00:52:54.762Z,18.40
2019-04-10T00:55:23.573Z,17.50
2019-04-10T00:57:51.968Z,17.80
2019-04-10T01:00:21.842Z,17.07
2019-04-10T01:02:49.830Z,17.10
2019-04-10T01:05:17.850Z,18.10
2019-04-10T01:07:47.096Z,17.30
2019-04-10T01:10:17.880Z,15.67
2019-04-10T01:12:45.995Z,15.70
2019-04-10T01:15:14.249Z,15.37
2019-04-10T01:17:42.398Z,16.40
2019-04-10T01:20:10.689Z,17.03
2019-04-10T01:22:39.259Z,19.03
2019-04-10T01:25:08.257Z,19.30
2019-04-10T01:27:36.228Z,18.10
2019-04-10T01:30:04.550Z,19.53
2019-04-10T01:32:32.846Z,19.30
2019-04-10T01:35:02.333Z,19.67
2019-04-10T01:37:33.559Z,19.30
2019-04-10T01:40:02.495Z,19.37
2019-04-10T01:42:30.658Z,20.23
2019-04-10T01:44:58.768Z,19.63
2019-04-10T01:47:26.991Z,19.87
2019-04-10T01:49:55.762Z,18.83
2019-04-10T01:52:24.772Z,17.93
2019-04-10T01:54:52.712Z,18.03
2019-04-10T01:57:20.605Z,19.03
2019-04-10T01:59:48.662Z,18.20
2019-04-10T02:02:25.368Z,18.33
2019-04-10T02:04:54.914Z,18.60
2019-04-10T02:07:24.388Z,17.57
2019-04-10T02:09:52.500Z,18.73
2019-04-10T02:12:20.708Z,18.47
2019-04-10T02:14:48.875Z,17.80
2019-04-10T02:17:16.972Z,19.23
2019-04-10T02:19:45.147Z,19.40
2019-04-10T02:22:14.189Z,19.37
2019-04-10T02:24:42.816Z,19.83
2019-04-10T02:27:11.059Z,19.97
2019-04-10T02:29:39.882Z,18.27
2019-04-10T02:32:08.126Z,18.50
2019-04-10T02:34:36.939Z,19.20
2019-04-10T02:37:06.612Z,19.50
2019-04-10T02:39:40.702Z,19.83
2019-04-10T02:42:06.162Z,18.87
2019-04-10T02:44:35.493Z,18.37
2019-04-10T02:47:04.376Z,19.50
2019-04-10T02:49:32.948Z,19.40
2019-04-10T02:52:00.827Z,19.37
2019-04-10T02:54:29.141Z,19.13
2019-04-10T02:56:57.588Z,19.00
2019-04-10T02:59:26.864Z,19.93
2019-04-10T03:01:56.114Z,19.93
2019-04-10T03:04:24.572Z,19.27
2019-04-10T03:06:53.568Z,18.70
2019-04-10T03:09:36.998Z,20.50
2019-04-10T03:11:51.957Z,18.90
2019-04-10T03:14:21.147Z,19.87
2019-04-10T03:16:49.325Z,21.23
2019-04-10T03:19:17.378Z,20.17
2019-04-10T03:21:45.179Z,19.43
2019-04-10T03:24:13.914Z,20.20
2019-04-10T03:26:41.847Z,20.47
2019-04-10T03:29:09.821Z,20.17
2019-04-10T03:31:39.207Z,20.43
2019-04-10T03:34:29.015Z,21.03
2019-04-10T03:36:57.990Z,20.40
2019-04-10T03:39:26.376Z,21.13
2019-04-10T03:41:54.745Z,19.43
2019-04-10T03:44:22.974Z,20.80
2019-04-10T03:46:51.199Z,20.37
2019-04-10T03:49:20.482Z,21.40
2019-04-10T03:51:50.010Z,20.23
2019-04-10T03:54:18.691Z,21.00
2019-04-10T03:56:47.874Z,20.97
2019-04-10T03:59:15.977Z,22.10
2019-04-10T04:01:44.044Z,21.40
2019-04-10T04:04:12.005Z,21.40
2019-04-10T04:06:39.989Z,20.80
2019-04-10T04:09:11.646Z,20.60
2019-04-10T04:11:38.047Z,20.27
2019-04-10T04:14:06.241Z,22.50
2019-04-10T04:16:35.307Z,22.13
2019-04-10T04:19:03.908Z,21.83
2019-04-10T04:21:32.095Z,21.60
2019-04-10T04:24:00.181Z,20.57
2019-04-10T04:26:28.283Z,21.63
2019-04-10T04:28:57.607Z,21.43
2019-04-10T04:31:25.682Z,22.20
2019-04-10T04:33:53.853Z,22.33
2019-04-10T04:36:21.899Z,23.00
2019-04-10T04:38:49.971Z,22.83
2019-04-10T04:41:17.838Z,23.33
2019-04-10T04:43:48.411Z,22.10
2019-04-10T04:46:16.247Z,22.40
2019-04-10T04:48:45.270Z,22.03
2019-04-10T04:51:13.482Z,22.07
2019-04-10T04:53:42.004Z,23.60
2019-04-10T04:56:09.872Z,23.23
2019-04-10T04:58:38.232Z,24.23
2019-04-10T05:01:06.360Z,24.67
2019-04-10T05:03:35.354Z,23.87
2019-04-10T05:06:06.787Z,23.83
2019-04-10T05:08:34.708Z,25.20
2019-04-10T05:11:02.776Z,25.33
2019-04-10T05:13:31.343Z,25.63
2019-04-10T05:15:59.551Z,26.63
2019-04-10T05:18:27.533Z,27.70
2019-04-10T05:20:55.368Z,28.33
2019-04-10T05:23:24.378Z,28.50
2019-04-10T05:25:52.409Z,28.73
2019-04-10T05:28:20.523Z,28.43
2019-04-10T05:30:48.436Z,28.33
2019-04-10T05:33:16.495Z,29.27
2019-04-10T05:35:44.550Z,29.87
2019-04-10T05:38:12.363Z,28.30
2019-04-10T05:40:40.173Z,26.83
2019-04-10T05:43:09.211Z,27.23
2019-04-10T05:45:38.003Z,24.50
2019-04-10T05:48:06.818Z,25.00
2019-04-10T05:50:35.665Z,24.13
2019-04-10T05:53:04.388Z,25.20
2019-04-10T05:55:33.124Z,25.70
2019-04-10T05:58:01.671Z,25.63
2019-04-10T06:00:29.648Z,27.10
2019-04-10T06:02:58.483Z,28.20
2019-04-10T06:05:26.528Z,27.63
2019-04-10T06:07:54.550Z,25.37
2019-04-10T06:10:22.586Z,26.17
2019-04-10T06:12:50.829Z,27.07
2019-04-10T06:15:19.064Z,26.17
2019-04-10T06:17:47.039Z,24.17
2019-04-10T06:20:15.669Z,26.13
2019-04-10T06:22:44.299Z,25.73
2019-04-10T06:25:15.928Z,26.40
2019-04-10T06:27:43.360Z,25.83
2019-04-10T06:30:12.117Z,26.47
2019-04-10T06:32:40.222Z,27.17
2019-04-10T06:35:08.516Z,28.07
2019-04-10T06:37:36.561Z,28.73
2019-04-10T06:40:13.051Z,28.40
2019-04-10T06:42:44.825Z,29.97
2019-04-10T06:45:05.745Z,28.57
2019-04-10T06:47:34.012Z,28.27
2019-04-10T06:50:02.561Z,27.67
2019-04-10T06:52:30.664Z,25.90
2019-04-10T06:54:58.456Z,27.80
2019-04-10T06:57:26.976Z,27.43
2019-04-10T06:59:54.755Z,26.07
2019-04-10T07:02:27.830Z,26.77
2019-04-10T07:04:55.986Z,26.40
2019-04-10T07:07:25.474Z,26.13
2019-04-10T07:09:55.093Z,27.33
2019-04-10T07:12:29.642Z,26.90
2019-04-10T07:14:58.060Z,26.43
2019-04-10T07:17:25.092Z,28.00
2019-04-10T07:19:53.462Z,28.47
2019-04-10T07:22:21.518Z,29.93
2019-04-10T07:24:51.828Z,29.40
2019-04-10T07:27:19.501Z,30.23
2019-04-10T07:29:50.778Z,30.90
2019-04-10T07:32:18.306Z,30.17
2019-04-10T07:34:48.653Z,29.83
2019-04-10T07:37:18.468Z,30.53
2019-04-10T07:39:46.984Z,30.73
2019-04-10T07:42:25.896Z,35.67
2019-04-10T07:44:45.022Z,33.63
2019-04-10T07:47:13.329Z,31.00
2019-04-10T07:49:41.947Z,29.53
2019-04-10T07:52:10.526Z,29.03
2019-04-10T07:54:40.494Z,28.07
2019-04-10T07:57:08.567Z,29.63
2019-04-10T07:59:37.511Z,29.77
2019-04-10T08:02:08.298Z,29.93
2019-04-10T08:04:35.683Z,31.30
2019-04-10T08:07:03.732Z,32.83
2019-04-10T08:09:31.502Z,30.77
2019-04-10T08:11:59.977Z,31.70
2019-04-10T08:14:27.944Z,29.50
2019-04-10T08:16:55.928Z,28.73
2019-04-10T08:19:25.364Z,30.07
2019-04-10T08:21:54.812Z,29.43
2019-04-10T08:24:23.531Z,31.87
2019-04-10T08:26:52.631Z,28.57
2019-04-10T08:29:21.735Z,28.00
2019-04-10T08:31:50.406Z,30.00
2019-04-10T08:34:19.404Z,30.53
2019-04-10T08:36:47.939Z,29.90
2019-04-10T08:39:28.469Z,29.87
2019-04-10T08:41:46.071Z,28.93
2019-04-10T08:44:14.102Z,30.87
2019-04-10T08:46:42.305Z,29.87
2019-04-10T08:49:10.246Z,29.77
2019-04-10T08:51:39.771Z,31.47
2019-04-10T08:54:07.972Z,29.97
2019-04-10T08:56:36.483Z,28.90
2019-04-10T08:59:05.618Z,29.47
2019-04-10T09:01:33.612Z,28.60
2019-04-10T09:04:01.581Z,26.63
2019-04-10T09:06:31.517Z,27.43
2019-04-10T09:08:59.638Z,31.20
2019-04-10T09:11:29.742Z,30.67
2019-04-10T09:13:57.484Z,31.67
2019-04-10T09:16:26.661Z,31.60
2019-04-10T09:18:55.569Z,32.20
2019-04-10T09:21:23.797Z,34.33
2019-04-10T09:23:54.396Z,34.77
2019-04-10T09:26:22.457Z,33.77
2019-04-10T09:28:50.801Z,35.97
2019-04-10T09:31:19.794Z,33.43
2019-04-10T09:33:47.776Z,33.17
2019-04-10T09:36:15.794Z,30.27
2019-04-10T09:38:44.213Z,30.40
2019-04-10T09:41:14.001Z,31.90
2019-04-10T09:43:42.208Z,29.30
2019-04-10T09:46:11.205Z,28.37
2019-04-10T09:48:40.077Z,29.40
2019-04-10T09:51:08.135Z,31.23
2019-04-10T09:53:37.165Z,30.57
2019-04-10T09:56:05.316Z,28.60
2019-04-10T09:58:33.955Z,29.90
2019-04-10T10:01:04.869Z,28.77
2019-04-10T10:03:32.874Z,29.57
2019-04-10T10:06:01.798Z,29.30
2019-04-10T10:08:29.795Z,30.20
2019-04-10T10:10:57.755Z,31.33
2019-04-10T10:13:25.784Z,29.57
2019-04-10T10:15:54.591Z,28.80
2019-04-10T10:18:23.556Z,30.10
2019-04-10T10:20:52.241Z,29.97
2019-04-10T10:23:20.227Z,32.53
2019-04-10T10:25:48.224Z,31.83
2019-04-10T10:28:16.241Z,33.97
2019-04-10T10:30:44.182Z,31.37
2019-04-10T10:33:13.143Z,31.57
2019-04-10T10:35:41.231Z,33.03
2019-04-10T10:38:09.059Z,32.50
2019-04-10T10:40:36.957Z,33.23
2019-04-10T10:43:05.002Z,30.50
2019-04-10T10:45:33.049Z,34.17
2019-04-10T10:48:01.290Z,31.83
2019-04-10T10:50:29.457Z,30.07
2019-04-10T10:55:21.333Z,28.77
2019-04-10T10:57:49.449Z,31.07
2019-04-10T11:00:18.892Z,30.13
2019-04-10T11:05:27.365Z,30.73
2019-04-10T11:07:55.841Z,31.50
2019-04-10T11:10:27.281Z,30.83
2019-04-10T11:12:55.174Z,32.73
2019-04-10T11:15:23.890Z,31.97
2019-04-10T11:17:52.125Z,32.60
2019-04-10T11:20:20.470Z,32.73
2019-04-10T11:22:49.569Z,32.87
2019-04-10T11:25:17.991Z,33.60
2019-04-10T11:27:46.097Z,32.67
2019-04-10T11:30:14.450Z,33.07
2019-04-10T11:32:42.493Z,31.43
2019-04-10T11:35:11.176Z,32.33
2019-04-10T11:37:44.420Z,34.13
2019-04-10T11:40:09.747Z,31.47
2019-04-10T11:42:39.908Z,34.17
2019-04-10T11:45:10.257Z,32.57
2019-04-10T11:47:38.870Z,34.37
2019-04-10T11:50:10.383Z,33.63
2019-04-10T11:52:42.518Z,33.30
2019-04-10T11:55:13.746Z,34.60
2019-04-10T11:57:37.346Z,33.83
2019-04-10T12:00:08.822Z,33.90
2019-04-10T12:02:37.083Z,32.93
2019-04-10T12:05:09.529Z,35.37
2019-04-10T12:08:04.755Z,33.23
2019-04-10T12:12:35.446Z,33.07
2019-04-10T12:15:04.040Z,29.00
2019-04-10T12:17:33.952Z,30.10
2019-04-10T12:20:02.895Z,29.10
2019-04-10T12:22:31.686Z,29.17
2019-04-10T12:25:00.710Z,28.50
2019-04-10T12:27:29.403Z,27.27
2019-04-10T12:29:57.483Z,28.93
2019-04-10T12:32:25.490Z,28.17
2019-04-10T12:34:53.847Z,27.60
2019-04-10T12:37:21.856Z,27.43
2019-04-10T12:39:49.893Z,28.40
2019-04-10T12:42:17.907Z,28.67
2019-04-10T12:44:45.839Z,27.07
2019-04-10T12:47:15.463Z,28.70
2019-04-10T12:49:43.621Z,27.93
2019-04-10T12:52:11.536Z,28.40
2019-04-10T12:54:40.502Z,27.60
2019-04-10T12:57:08.660Z,24.47
2019-04-10T12:59:36.634Z,26.33
2019-04-10T13:02:04.957Z,25.37
2019-04-10T13:04:33.046Z,25.50
2019-04-10T13:07:01.167Z,26.50
2019-04-10T13:09:29.639Z,25.73
2019-04-10T13:11:58.724Z,26.47
2019-04-10T13:14:26.911Z,27.83
2019-04-10T13:16:54.978Z,27.83
2019-04-10T13:19:23.057Z,28.17
2019-04-10T13:21:51.663Z,27.23
2019-04-10T13:24:19.911Z,28.90
2019-04-10T13:26:48.182Z,30.43
2019-04-10T13:29:16.440Z,29.13
2019-04-10T13:31:44.622Z,32.00
2019-04-10T13:34:13.143Z,32.73
2019-04-10T13:36:41.885Z,27.40
2019-04-10T13:39:13.130Z,33.33
2019-04-10T13:41:40.873Z,32.43
2019-04-10T13:44:08.700Z,30.63
2019-04-10T13:46:37.242Z,28.03
2019-04-10T13:49:06.035Z,32.97
2019-04-10T13:51:33.771Z,33.27
2019-04-10T13:54:02.062Z,32.13
2019-04-10T13:56:30.895Z,33.27
2019-04-10T13:58:58.598Z,34.97
2019-04-10T14:01:29.670Z,35.27
2019-04-10T14:03:57.252Z,36.80
2019-04-10T14:06:25.451Z,35.83
2019-04-10T14:09:07.876Z,34.23
2019-04-10T14:11:22.678Z,35.30
2019-04-10T14:13:50.404Z,33.73
2019-04-10T14:16:17.977Z,34.77
2019-04-10T14:18:45.588Z,35.87
2019-04-10T14:21:15.764Z,36.17
2019-04-10T14:23:43.164Z,31.83
2019-04-10T14:26:42.030Z,31.37
2019-04-10T14:28:59.982Z,28.07
2019-04-10T14:31:30.265Z,34.97
2019-04-10T14:33:58.387Z,34.40
2019-04-10T14:36:26.251Z,34.03
2019-04-10T14:38:55.024Z,33.13
2019-04-10T14:41:24.787Z,32.80
2019-04-10T14:43:53.659Z,30.63
2019-04-10T14:46:21.530Z,31.87
2019-04-10T14:48:49.221Z,33.10
2019-04-10T14:51:16.815Z,26.03
2019-04-10T14:53:45.470Z,28.93
2019-04-10T14:56:13.705Z,30.37
2019-04-10T14:58:42.363Z,26.20
2019-04-10T15:01:09.966Z,30.43
2019-04-10T15:03:38.266Z,31.87
2019-04-10T15:06:07.034Z,31.13
2019-04-10T15:08:35.635Z,32.27
2019-04-10T15:11:04.433Z,30.83
2019-04-10T15:13:32.187Z,26.57
2019-04-10T15:16:00.642Z,25.43
2019-04-10T15:18:28.835Z,28.03
2019-04-10T15:20:56.610Z,27.07
2019-04-10T15:23:25.480Z,26.67
2019-04-10T15:25:53.067Z,27.83
2019-04-10T15:28:20.736Z,27.90
2019-04-10T15:30:48.294Z,25.60
2019-04-10T15:33:15.985Z,28.80
2019-04-10T15:35:44.674Z,25.10
2019-04-10T15:38:13.666Z,30.77
2019-04-10T15:40:42.088Z,26.90
2019-04-10T15:43:10.778Z,26.23
2019-04-10T15:45:38.573Z,26.50
2019-04-10T15:48:06.326Z,22.10
2019-04-10T15:50:34.929Z,26.40
2019-04-10T15:53:04.929Z,24.40
2019-04-10T15:55:32.727Z,23.97
2019-04-10T15:58:02.292Z,26.53
2019-04-10T16:00:30.084Z,23.07
2019-04-10T16:02:57.798Z,21.60
2019-04-10T16:05:25.872Z,24.47
2019-04-10T16:07:53.608Z,21.07
2019-04-10T16:10:39.997Z,22.27
2019-04-10T16:13:25.147Z,21.33
2019-04-10T16:15:54.638Z,19.20
2019-04-10T16:18:24.166Z,18.33
2019-04-10T16:20:52.897Z,16.20
2019-04-10T16:23:27.412Z,16.37
2019-04-10T16:25:54.544Z,14.77
2019-04-10T16:28:22.849Z,16.97
2019-04-10T16:30:50.826Z,17.17
2019-04-10T16:33:18.871Z,16.70
2019-04-10T16:35:46.673Z,16.33
2019-04-10T16:38:14.308Z,15.50
2019-04-10T16:40:41.979Z,15.03
2019-04-10T16:43:09.649Z,15.30
2019-04-10T16:45:38.688Z,14.80
2019-04-10T16:48:06.715Z,15.37
2019-04-10T16:50:34.802Z,14.60
2019-04-10T16:53:03.380Z,13.73
2019-04-10T16:55:31.127Z,14.83
2019-04-10T16:57:59.090Z,15.00
2019-04-10T17:00:27.062Z,13.40
2019-04-10T17:02:56.525Z,14.40
2019-04-10T17:05:24.817Z,13.77
2019-04-10T17:07:52.926Z,14.23
2019-04-10T17:10:25.808Z,13.60
2019-04-10T17:12:53.950Z,14.47
2019-04-10T17:15:22.042Z,12.83
2019-04-10T17:17:50.674Z,13.80
2019-04-10T17:20:19.232Z,14.00
2019-04-10T17:22:49.632Z,14.03
2019-04-10T17:25:18.130Z,14.93
2019-04-10T17:27:47.966Z,14.80
2019-04-10T17:30:15.932Z,15.50
2019-04-10T17:32:44.626Z,14.20
2019-04-10T17:35:13.670Z,15.43
2019-04-10T17:37:42.247Z,15.87
2019-04-10T17:40:24.967Z,15.53
2019-04-10T17:42:44.354Z,16.10
2019-04-10T17:45:14.185Z,14.57
2019-04-10T17:47:45.119Z,16.43
2019-04-10T17:50:16.285Z,14.33
2019-04-10T17:52:45.142Z,13.77
2019-04-10T17:55:13.459Z,13.17
2019-04-10T17:57:44.180Z,12.70
2019-04-10T18:00:40.032Z,11.67
2019-04-10T18:03:07.783Z,12.20
2019-04-10T18:05:37.100Z,11.53
2019-04-10T18:08:05.214Z,11.97
2019-04-10T18:10:42.709Z,11.20
2019-04-10T18:13:02.965Z,11.30
2019-04-10T18:15:30.951Z,11.00
2019-04-10T18:17:59.667Z,10.83
2019-04-10T18:20:28.256Z,10.60
2019-04-10T18:22:56.309Z,10.33
2019-04-10T18:25:24.246Z,10.37
2019-04-10T18:27:52.477Z,10.83
2019-04-10T18:30:21.664Z,10.20
2019-04-10T18:32:49.861Z,10.13
2019-04-10T18:35:18.408Z,9.80
2019-04-10T18:37:48.136Z,9.60
2019-04-10T18:40:16.947Z,10.17
2019-04-10T18:42:45.401Z,9.90
2019-04-10T18:45:13.548Z,11.00
2019-04-10T18:47:41.821Z,9.67
2019-04-10T18:50:10.086Z,10.17
2019-04-10T18:52:39.280Z,10.23
2019-04-10T18:55:08.029Z,9.90
2019-04-10T18:57:36.208Z,9.70
2019-04-10T19:00:31.091Z,10.50
2019-04-10T19:03:13.163Z,10.23
2019-04-10T19:05:43.718Z,10.00
2019-04-10T19:08:13.322Z,9.57
2019-04-10T19:10:41.075Z,10.33
2019-04-10T19:13:09.576Z,10.90
2019-04-10T19:15:39.902Z,10.60
2019-04-10T19:18:07.655Z,10.83
2019-04-10T19:20:35.795Z,10.90
2019-04-10T19:23:04.381Z,11.37
2019-04-10T19:25:32.557Z,11.13
2019-04-10T19:28:00.558Z,11.60
2019-04-10T19:30:37.675Z,11.27
2019-04-10T19:33:05.823Z,11.47
2019-04-10T19:35:33.587Z,12.27
2019-04-10T19:38:01.169Z,11.77
2019-04-10T19:40:29.927Z,11.20
2019-04-10T19:42:57.842Z,12.33
2019-04-10T19:45:27.865Z,11.30
2019-04-10T19:47:56.906Z,11.73
2019-04-10T19:50:25.520Z,11.87
2019-04-10T19:52:53.586Z,12.83
2019-04-10T19:55:21.954Z,12.27
2019-04-10T19:57:49.845Z,11.87
2019-04-10T20:00:20.077Z,12.60
2019-04-10T20:02:48.986Z,11.90
2019-04-10T20:05:17.014Z,12.40
2019-04-10T20:07:44.998Z,12.23
2019-04-10T20:10:13.137Z,13.00
2019-04-10T20:12:42.506Z,12.00
2019-04-10T20:15:10.647Z,11.97
2019-04-10T20:17:38.538Z,12.13
2019-04-10T20:20:08.402Z,12.80
2019-04-10T20:22:36.991Z,12.17
2019-04-10T20:25:06.097Z,11.93
2019-04-10T20:27:34.161Z,12.60
2019-04-10T20:30:02.234Z,12.93
2019-04-10T20:32:30.378Z,13.77
2019-04-10T20:34:58.707Z,13.00
2019-04-10T20:37:26.944Z,13.03
2019-04-10T20:39:55.865Z,13.83
2019-04-10T20:42:25.176Z,14.93
2019-04-10T20:44:53.364Z,14.73
2019-04-10T20:47:22.519Z,14.33
2019-04-10T20:49:51.172Z,14.30
2019-04-10T20:52:19.998Z,14.43
2019-04-10T20:54:48.931Z,14.10
2019-04-10T20:57:16.834Z,13.90
2019-04-10T20:59:45.053Z,14.20
2019-04-10T21:02:13.793Z,14.20
2019-04-10T21:04:53.765Z,12.90
2019-04-10T21:07:12.559Z,13.83
2019-04-10T21:09:41.632Z,12.13
2019-04-10T21:12:13.010Z,13.63
2019-04-10T21:14:40.365Z,14.70
2019-04-10T21:17:08.794Z,14.43
2019-04-10T21:19:37.540Z,14.20
2019-04-10T21:22:05.869Z,15.03
2019-04-10T21:24:33.674Z,17.27
2019-04-10T21:27:01.387Z,18.37
2019-04-10T21:30:03.788Z,16.00
2019-04-10T21:32:53.705Z,16.87
2019-04-10T21:35:27.102Z,17.40
2019-04-10T21:37:55.090Z,19.60
2019-04-10T21:40:23.106Z,17.77
2019-04-10T21:42:51.917Z,19.47
2019-04-10T21:45:20.199Z,18.57
2019-04-10T21:47:48.194Z,19.30
2019-04-10T21:50:17.152Z,19.23
2019-04-10T21:52:46.128Z,19.73
2019-04-10T21:55:15.026Z,18.93
2019-04-10T21:57:42.686Z,20.13
2019-04-10T22:00:12.263Z,21.03
2019-04-10T22:02:42.239Z,20.50
2019-04-10T22:05:12.276Z,19.37
2019-04-10T22:08:03.110Z,18.50
2019-04-10T22:10:57.443Z,19.70
2019-04-10T22:13:28.138Z,17.20
2019-04-10T22:15:57.506Z,15.60
2019-04-10T22:18:25.687Z,15.30
2019-04-10T22:20:54.181Z,14.67
2019-04-10T22:23:22.424Z,17.23
2019-04-10T22:25:50.778Z,17.70
2019-04-10T22:28:19.067Z,18.60
2019-04-10T22:30:48.339Z,18.63
2019-04-10T22:33:16.518Z,18.03
2019-04-10T22:35:44.510Z,18.73
2019-04-10T22:38:13.144Z,18.30
2019-04-10T22:40:42.033Z,19.17
2019-04-10T22:43:10.036Z,18.40
2019-04-10T22:45:38.215Z,20.50
2019-04-10T22:48:06.347Z,19.83
2019-04-10T22:50:34.530Z,20.50
2019-04-10T22:53:02.719Z,18.70
2019-04-10T22:55:31.795Z,20.03
2019-04-10T22:58:00.310Z,19.60
2019-04-10T23:00:32.690Z,20.57
2019-04-10T23:03:00.972Z,20.10
2019-04-10T23:05:29.023Z,18.87
2019-04-10T23:07:56.880Z,18.30
2019-04-10T23:10:25.034Z,18.40
2019-04-10T23:13:00.827Z,18.83
2019-04-10T23:15:23.172Z,23.50
2019-04-10T23:17:51.041Z,26.50
2019-04-10T23:20:19.033Z,26.13
2019-04-10T23:22:48.744Z,25.20
2019-04-10T23:25:18.230Z,25.40
2019-04-10T23:27:46.291Z,23.93
2019-04-10T23:30:18.258Z,25.43
2019-04-10T23:32:47.865Z,25.47
2019-04-10T23:35:17.018Z,26.23
2019-04-10T23:37:46.890Z,27.13
2019-04-10T23:40:14.929Z,26.87
2019-04-10T23:42:44.093Z,27.27
2019-04-10T23:45:13.496Z,27.20
2019-04-10T23:47:42.361Z,27.00
2019-04-10T23:50:10.469Z,28.30
2019-04-10T23:52:38.437Z,27.77
2019-04-10T23:55:08.010Z,28.37
2019-04-10T23:57:36.150Z,29.57
